createdAt,value
2017-10-18T00:02:27.286Z,9.73
2017-10-18T00:04:56.473Z,9.37
2017-10-18T00:07:25.889Z,10.53
2017-10-18T00:09:55.307Z,10.00
2017-10-18T00:12:24.808Z,9.33
2017-10-18T00:14:53.995Z,8.63
2017-10-18T00:17:23.185Z,8.57
2017-10-18T00:19:53.672Z,9.57
2017-10-18T00:22:23.065Z,9.10
2017-10-18T00:24:52.433Z,10.13
2017-10-18T00:27:22.233Z,9.40
2017-10-18T00:29:51.634Z,10.17
2017-10-18T00:32:21.019Z,9.40
2017-10-18T00:34:51.439Z,9.53
2017-10-18T00:37:21.580Z,9.70
2017-10-18T00:39:51.737Z,11.47
2017-10-18T00:42:21.488Z,10.27
2017-10-18T00:44:50.861Z,9.77
2017-10-18T00:47:20.050Z,9.70
2017-10-18T00:49:50.553Z,9.70
2017-10-18T00:52:19.927Z,9.73
2017-10-18T00:54:49.133Z,10.70
2017-10-18T00:57:18.897Z,10.73
2017-10-18T00:59:48.088Z,10.23
2017-10-18T01:02:17.519Z,9.20
2017-10-18T01:04:47.239Z,10.40
2017-10-18T01:07:16.631Z,10.77
2017-10-18T01:09:46.016Z,10.67
2017-10-18T01:12:16.530Z,10.37
2017-10-18T01:14:45.706Z,10.37
2017-10-18T01:17:14.902Z,10.37
2017-10-18T01:19:44.961Z,12.17
2017-10-18T01:22:14.152Z,11.63
2017-10-18T01:24:43.535Z,12.83
2017-10-18T01:27:14.338Z,13.23
2017-10-18T01:29:43.717Z,12.87
2017-10-18T01:32:12.762Z,12.30
2017-10-18T01:34:42.164Z,13.93
2017-10-18T01:37:11.611Z,13.57
2017-10-18T01:39:40.987Z,13.03
2017-10-18T01:42:10.733Z,11.17
2017-10-18T01:44:40.112Z,14.03
2017-10-18T01:47:09.505Z,13.10
2017-10-18T01:49:39.997Z,12.80
2017-10-18T01:52:09.392Z,12.33
2017-10-18T01:54:38.768Z,14.13
2017-10-18T01:57:08.553Z,13.13
2017-10-18T01:59:37.732Z,12.03
2017-10-18T02:02:08.922Z,12.67
2017-10-18T02:04:38.128Z,12.90
2017-10-18T02:07:07.510Z,11.93
2017-10-18T02:09:37.380Z,13.53
2017-10-18T02:12:06.583Z,13.27
2017-10-18T02:14:35.969Z,13.33
2017-10-18T02:17:06.026Z,12.67
2017-10-18T02:19:35.431Z,12.53
2017-10-18T02:22:05.465Z,11.80
2017-10-18T02:24:34.869Z,12.53
2017-10-18T02:27:04.249Z,12.17
2017-10-18T02:29:34.251Z,12.60
2017-10-18T02:32:03.938Z,12.43
2017-10-18T02:34:33.383Z,11.17
2017-10-18T02:37:02.753Z,11.43
2017-10-18T02:39:32.698Z,12.77
2017-10-18T02:42:02.080Z,11.37
2017-10-18T02:44:31.465Z,11.33
2017-10-18T02:47:01.429Z,10.73
2017-10-18T02:49:30.813Z,12.77
2017-10-18T02:52:00.971Z,11.13
2017-10-18T02:54:30.180Z,12.00
2017-10-18T02:57:00.329Z,10.83
2017-10-18T02:59:29.533Z,11.50
2017-10-18T03:01:59.278Z,12.00
2017-10-18T03:04:28.684Z,11.30
2017-10-18T03:06:58.065Z,11.10
2017-10-18T03:09:29.060Z,11.53
2017-10-18T03:11:58.440Z,11.60
2017-10-18T03:14:27.826Z,12.40
2017-10-18T03:16:57.818Z,10.43
2017-10-18T03:19:27.476Z,11.27
2017-10-18T03:21:56.862Z,11.87
2017-10-18T03:24:26.588Z,10.87
2017-10-18T03:26:55.625Z,11.63
2017-10-18T03:29:25.114Z,14.63
2017-10-18T03:31:55.851Z,11.60
2017-10-18T03:34:24.895Z,11.23
2017-10-18T03:36:53.989Z,10.73
2017-10-18T03:39:23.951Z,12.27
2017-10-18T03:41:54.105Z,12.40
2017-10-18T03:44:23.317Z,11.93
2017-10-18T03:46:53.368Z,12.77
2017-10-18T03:49:22.754Z,13.00
2017-10-18T03:51:52.134Z,12.27
2017-10-18T03:54:24.953Z,13.20
2017-10-18T03:56:54.345Z,13.57
2017-10-18T03:59:24.514Z,13.80
2017-10-18T04:01:54.065Z,11.67
2017-10-18T04:04:23.438Z,14.30
2017-10-18T04:06:52.829Z,13.63
2017-10-18T04:09:22.940Z,13.17
2017-10-18T04:11:52.318Z,13.30
2017-10-18T04:14:21.703Z,12.60
2017-10-18T04:16:51.463Z,13.00
2017-10-18T04:19:20.846Z,12.63
2017-10-18T04:21:50.230Z,12.63
2017-10-18T04:24:19.939Z,13.03
2017-10-18T04:26:49.326Z,12.43
2017-10-18T04:29:18.716Z,13.83
2017-10-18T04:31:48.733Z,12.97
2017-10-18T04:34:17.922Z,13.60
2017-10-18T04:36:47.306Z,12.97
2017-10-18T04:39:17.776Z,14.60
2017-10-18T04:41:47.163Z,13.07
2017-10-18T04:44:17.321Z,12.93
2017-10-18T04:46:46.873Z,13.70
2017-10-18T04:49:16.247Z,13.40
2017-10-18T04:51:45.626Z,15.93
2017-10-18T04:54:15.627Z,13.63
2017-10-18T04:56:45.006Z,13.57
2017-10-18T04:59:14.393Z,12.77
2017-10-18T05:01:45.094Z,14.13
2017-10-18T05:04:14.323Z,14.20
2017-10-18T05:06:44.366Z,13.67
2017-10-18T05:09:15.588Z,14.87
2017-10-18T05:11:44.971Z,14.13
2017-10-18T05:14:14.388Z,15.37
2017-10-18T05:16:43.992Z,15.57
2017-10-18T05:19:14.144Z,15.07
2017-10-18T05:21:42.662Z,16.33
2017-10-18T05:24:12.185Z,16.77
2017-10-18T05:26:41.587Z,15.67
2017-10-18T05:29:10.785Z,17.70
2017-10-18T05:31:40.733Z,16.73
2017-10-18T05:34:10.108Z,18.43
2017-10-18T05:36:39.496Z,19.43
2017-10-18T05:39:09.194Z,18.77
2017-10-18T05:41:38.588Z,18.93
2017-10-18T05:44:07.981Z,18.33
2017-10-18T05:46:37.756Z,18.80
2017-10-18T05:49:07.147Z,20.93
2017-10-18T05:51:36.361Z,20.23
2017-10-18T05:54:07.586Z,22.20
2017-10-18T05:56:36.793Z,22.80
2017-10-18T05:59:06.178Z,22.33
2017-10-18T06:01:35.906Z,23.43
2017-10-18T06:04:06.045Z,22.67
2017-10-18T06:06:36.545Z,24.97
2017-10-18T06:09:05.604Z,23.37
2017-10-18T06:11:35.783Z,23.50
2017-10-18T06:14:05.518Z,26.50
2017-10-18T06:16:34.897Z,22.43
2017-10-18T06:19:03.743Z,23.77
2017-10-18T06:21:35.398Z,25.87
2017-10-18T06:24:06.080Z,26.33
2017-10-18T06:26:37.018Z,27.70
2017-10-18T06:29:06.217Z,29.17
2017-10-18T06:31:37.458Z,28.67
2017-10-18T06:34:06.854Z,30.70
2017-10-18T06:36:36.290Z,32.27
2017-10-18T06:39:05.221Z,34.67
2017-10-18T06:41:34.613Z,36.30
2017-10-18T06:44:04.134Z,33.87
2017-10-18T06:46:33.943Z,34.77
2017-10-18T06:49:03.512Z,34.57
2017-10-18T06:51:33.806Z,34.77
2017-10-18T06:54:04.242Z,37.03
2017-10-18T06:56:33.636Z,37.93
2017-10-18T06:59:03.025Z,34.37
2017-10-18T07:01:33.661Z,36.90
2017-10-18T07:04:03.804Z,38.30
2017-10-18T07:06:33.556Z,38.70
2017-10-18T07:09:02.767Z,42.03
2017-10-18T07:11:32.110Z,39.83
2017-10-18T07:14:01.821Z,40.97
2017-10-18T07:16:31.025Z,40.17
2017-10-18T07:19:00.604Z,42.70
2017-10-18T07:21:30.566Z,41.47
2017-10-18T07:24:00.101Z,39.57
2017-10-18T07:26:29.485Z,45.47
2017-10-18T07:28:59.225Z,46.47
2017-10-18T07:31:28.619Z,46.60
2017-10-18T07:33:58.474Z,45.93
2017-10-18T07:36:27.670Z,49.03
2017-10-18T07:38:56.625Z,51.70
2017-10-18T07:41:26.606Z,48.20
2017-10-18T07:43:56.643Z,45.70
2017-10-18T07:46:26.133Z,49.60
2017-10-18T07:48:55.537Z,45.60
2017-10-18T07:51:25.817Z,47.93
2017-10-18T07:53:55.366Z,47.40
2017-10-18T07:56:25.549Z,47.10
2017-10-18T07:58:55.281Z,46.53
2017-10-18T08:01:25.534Z,48.20
2017-10-18T08:03:55.258Z,50.10
2017-10-18T08:06:24.652Z,46.50
2017-10-18T08:08:54.426Z,48.53
2017-10-18T08:11:24.594Z,47.03
2017-10-18T08:13:54.424Z,46.83
2017-10-18T08:16:23.828Z,45.77
2017-10-18T08:18:53.235Z,47.67
2017-10-18T08:21:22.573Z,49.00
2017-10-18T08:23:51.967Z,46.47
2017-10-18T08:26:21.519Z,47.33
2017-10-18T08:28:51.698Z,49.37
2017-10-18T08:31:22.338Z,48.57
2017-10-18T08:33:52.521Z,47.90
2017-10-18T08:36:21.613Z,48.13
2017-10-18T08:38:51.338Z,48.93
2017-10-18T08:41:20.977Z,46.33
2017-10-18T08:43:50.365Z,47.97
2017-10-18T08:46:20.335Z,46.07
2017-10-18T08:48:49.371Z,45.80
2017-10-18T08:51:19.205Z,46.57
2017-10-18T08:53:49.022Z,47.50
2017-10-18T08:56:19.191Z,45.37
2017-10-18T08:58:48.733Z,46.90
2017-10-18T09:01:18.133Z,46.67
2017-10-18T09:03:47.537Z,45.80
2017-10-18T09:06:16.727Z,46.70
2017-10-18T09:08:46.590Z,46.20
2017-10-18T09:11:15.974Z,47.80
2017-10-18T09:13:45.170Z,48.07
2017-10-18T09:16:15.448Z,48.40
2017-10-18T09:18:44.899Z,43.80
2017-10-18T09:21:14.936Z,43.73
2017-10-18T09:23:45.094Z,40.83
2017-10-18T09:26:14.494Z,42.40
2017-10-18T09:28:44.286Z,43.97
2017-10-18T09:31:13.664Z,41.50
2017-10-18T09:33:43.086Z,38.87
2017-10-18T09:36:12.637Z,40.00
2017-10-18T09:38:42.018Z,40.30
2017-10-18T09:41:11.413Z,39.97
2017-10-18T09:43:41.163Z,40.40
2017-10-18T09:46:10.597Z,40.53
2017-10-18T09:48:39.980Z,37.87
2017-10-18T09:51:09.727Z,38.83
2017-10-18T09:53:39.113Z,38.40
2017-10-18T09:56:08.507Z,37.73
2017-10-18T09:58:38.282Z,37.90
2017-10-18T10:01:07.676Z,39.13
2017-10-18T10:03:37.075Z,39.13
2017-10-18T10:06:06.825Z,36.57
2017-10-18T10:08:37.856Z,36.73
2017-10-18T10:11:07.381Z,39.50
2017-10-18T10:13:36.581Z,38.63
2017-10-18T10:16:06.601Z,37.03
2017-10-18T10:21:39.996Z,34.23
2017-10-18T10:24:09.383Z,33.87
2017-10-18T10:26:38.783Z,33.40
2017-10-18T10:29:09.333Z,34.80
2017-10-18T10:31:38.726Z,33.80
2017-10-18T10:34:08.113Z,31.47
2017-10-18T10:36:38.282Z,33.67
2017-10-18T10:39:07.669Z,32.60
2017-10-18T10:41:38.156Z,33.37
2017-10-18T10:44:07.533Z,31.77
2017-10-18T10:46:37.689Z,30.07
2017-10-18T10:49:08.359Z,29.83
2017-10-18T10:51:37.778Z,31.23
2017-10-18T10:54:07.141Z,29.63
2017-10-18T10:56:37.007Z,28.97
2017-10-18T10:59:06.399Z,31.40
2017-10-18T11:01:35.773Z,30.67
2017-10-18T11:04:06.413Z,31.03
2017-10-18T11:06:35.793Z,29.00
2017-10-18T11:09:04.502Z,28.03
2017-10-18T11:11:33.992Z,27.17
2017-10-18T11:14:03.384Z,27.97
2017-10-18T11:16:32.769Z,28.30
2017-10-18T11:19:02.554Z,27.93
2017-10-18T11:21:31.950Z,28.83
2017-10-18T11:24:01.350Z,29.33
2017-10-18T11:26:32.178Z,30.40
2017-10-18T11:29:01.569Z,28.07
2017-10-18T11:31:30.990Z,25.80
2017-10-18T11:34:00.706Z,25.43
2017-10-18T11:36:30.087Z,26.93
2017-10-18T11:39:00.440Z,26.93
2017-10-18T11:41:29.832Z,25.73
2017-10-18T11:43:59.213Z,26.27
2017-10-18T11:46:30.314Z,26.27
2017-10-18T11:49:00.656Z,26.60
2017-10-18T11:51:30.690Z,26.60
2017-10-18T11:54:00.978Z,27.47
2017-10-18T11:56:30.575Z,25.40
2017-10-18T11:59:00.279Z,25.40
2017-10-18T12:01:29.669Z,26.30
2017-10-18T12:03:59.115Z,26.47
2017-10-18T12:06:28.765Z,26.53
2017-10-18T12:08:58.935Z,25.67
2017-10-18T12:11:28.345Z,25.43
2017-10-18T12:14:00.764Z,25.63
2017-10-18T12:16:30.188Z,25.20
2017-10-18T12:18:59.762Z,26.47
2017-10-18T12:21:29.526Z,26.33
2017-10-18T12:23:59.009Z,27.17
2017-10-18T12:26:28.900Z,28.03
2017-10-18T12:28:59.077Z,26.20
2017-10-18T12:31:28.570Z,25.13
2017-10-18T12:33:58.593Z,24.23
2017-10-18T12:36:28.816Z,24.70
2017-10-18T12:38:59.819Z,23.57
2017-10-18T12:41:31.638Z,24.40
2017-10-18T12:44:01.014Z,25.57
2017-10-18T12:46:30.905Z,25.57
2017-10-18T12:49:00.869Z,25.67
2017-10-18T12:51:31.040Z,25.73
2017-10-18T12:54:01.149Z,24.47
2017-10-18T12:56:30.742Z,25.53
2017-10-18T12:59:01.988Z,25.23
2017-10-18T13:01:31.389Z,24.93
2017-10-18T13:04:00.816Z,25.40
2017-10-18T13:06:31.333Z,23.47
2017-10-18T13:09:00.971Z,24.40
2017-10-18T13:11:30.380Z,23.53
2017-10-18T13:14:01.462Z,22.50
2017-10-18T13:16:32.742Z,23.97
2017-10-18T13:19:02.157Z,23.70
2017-10-18T13:21:31.580Z,23.90
2017-10-18T13:24:00.964Z,24.57
2017-10-18T13:26:30.906Z,24.67
2017-10-18T13:29:00.293Z,24.73
2017-10-18T13:31:33.002Z,25.90
2017-10-18T13:34:03.893Z,24.10
2017-10-18T13:36:35.148Z,24.67
2017-10-18T13:39:06.686Z,25.67
2017-10-18T13:41:37.619Z,26.03
2017-10-18T13:44:07.000Z,24.40
2017-10-18T13:46:36.410Z,24.67
2017-10-18T13:49:06.579Z,26.20
2017-10-18T13:51:35.958Z,23.77
2017-10-18T13:54:06.108Z,24.20
2017-10-18T13:56:42.865Z,25.53
2017-10-18T13:59:14.408Z,23.43
2017-10-18T14:01:45.856Z,25.03
2017-10-18T14:04:16.309Z,23.93
2017-10-18T14:06:45.513Z,24.07
2017-10-18T14:09:15.216Z,23.50
2017-10-18T14:11:44.615Z,24.73
2017-10-18T14:14:14.001Z,24.17
2017-10-18T14:16:44.388Z,24.40
2017-10-18T14:19:15.108Z,22.30
2017-10-18T14:21:44.752Z,25.43
2017-10-18T14:24:14.962Z,25.33
2017-10-18T14:26:44.392Z,25.37
2017-10-18T14:29:13.776Z,24.03
2017-10-18T14:31:43.161Z,25.20
2017-10-18T14:34:12.841Z,23.97
2017-10-18T14:36:41.881Z,23.37
2017-10-18T14:39:11.275Z,23.43
2017-10-18T14:41:40.992Z,22.87
2017-10-18T14:44:12.864Z,23.40
2017-10-18T14:46:42.789Z,25.43
2017-10-18T14:49:12.182Z,23.73
2017-10-18T14:51:41.570Z,24.33
2017-10-18T14:54:11.813Z,25.07
2017-10-18T14:56:41.965Z,23.97
2017-10-18T14:59:11.366Z,25.50
2017-10-18T15:01:41.947Z,25.53
2017-10-18T15:04:11.438Z,25.17
2017-10-18T15:06:40.838Z,25.30
2017-10-18T15:09:11.062Z,24.30
2017-10-18T15:11:40.714Z,23.87
2017-10-18T15:14:10.480Z,24.40
2017-10-18T15:16:39.890Z,24.23
2017-10-18T15:19:09.598Z,24.63
2017-10-18T15:21:38.985Z,24.53
2017-10-18T15:24:08.534Z,24.97
2017-10-18T15:26:38.062Z,25.70
2017-10-18T15:29:07.255Z,25.37
2017-10-18T15:31:36.777Z,25.27
2017-10-18T15:34:05.974Z,25.70
2017-10-18T15:36:36.172Z,25.53
2017-10-18T15:39:06.667Z,25.73
2017-10-18T15:41:38.276Z,24.50
2017-10-18T15:44:08.764Z,25.33
2017-10-18T15:46:38.211Z,24.73
2017-10-18T15:49:08.412Z,24.13
2017-10-18T15:51:37.613Z,24.50
2017-10-18T15:54:09.159Z,25.37
2017-10-18T15:56:38.541Z,24.03
2017-10-18T15:59:08.147Z,23.20
2017-10-18T16:01:38.077Z,24.53
2017-10-18T16:04:07.467Z,25.23
2017-10-18T16:06:36.844Z,25.67
2017-10-18T16:09:06.292Z,25.83
2017-10-18T16:11:35.696Z,25.10
2017-10-18T16:14:05.083Z,25.57
2017-10-18T16:16:35.074Z,25.27
2017-10-18T16:19:05.038Z,26.00
2017-10-18T16:21:35.201Z,26.93
2017-10-18T16:24:04.933Z,25.33
2017-10-18T16:26:34.364Z,26.43
2017-10-18T16:29:03.754Z,26.93
2017-10-18T16:31:33.548Z,26.97
2017-10-18T16:34:03.578Z,27.30
2017-10-18T16:36:33.024Z,27.97
2017-10-18T16:39:02.767Z,27.07
2017-10-18T16:41:32.208Z,27.23
2017-10-18T16:44:23.946Z,27.47
2017-10-18T16:46:54.249Z,25.90
2017-10-18T16:49:23.753Z,27.90
2017-10-18T16:51:53.945Z,29.00
2017-10-18T16:54:23.648Z,30.50
2017-10-18T16:56:53.062Z,33.13
2017-10-18T16:59:22.451Z,32.23
2017-10-18T17:01:52.214Z,31.97
2017-10-18T17:04:21.614Z,35.17
2017-10-18T17:06:52.037Z,33.70
2017-10-18T17:09:22.097Z,31.67
2017-10-18T17:11:51.531Z,31.13
2017-10-18T17:14:20.919Z,33.13
2017-10-18T17:16:50.962Z,34.07
2017-10-18T17:19:20.167Z,35.13
2017-10-18T17:21:49.545Z,33.93
2017-10-18T17:24:19.507Z,34.23
2017-10-18T17:26:48.897Z,32.23
2017-10-18T17:29:18.285Z,34.27
2017-10-18T17:31:48.446Z,34.43
2017-10-18T17:34:17.848Z,34.83
2017-10-18T17:36:47.246Z,34.33
2017-10-18T17:39:17.730Z,34.00
2017-10-18T17:41:48.290Z,33.30
2017-10-18T17:44:17.791Z,32.30
2017-10-18T17:46:47.809Z,35.20
2017-10-18T17:49:17.210Z,32.23
2017-10-18T17:51:46.606Z,33.23
2017-10-18T17:54:16.807Z,34.90
2017-10-18T17:56:46.505Z,35.03
2017-10-18T17:59:15.936Z,33.30
2017-10-18T18:01:45.110Z,34.17
2017-10-18T18:04:14.794Z,32.07
2017-10-18T18:06:44.169Z,34.87
2017-10-18T18:09:13.602Z,35.67
2017-10-18T18:11:43.292Z,35.00
2017-10-18T18:14:12.497Z,36.20
2017-10-18T18:16:41.891Z,35.37
2017-10-18T18:19:11.603Z,36.03
2017-10-18T18:21:41.769Z,35.70
2017-10-18T18:24:11.164Z,37.47
2017-10-18T18:26:40.944Z,35.70
2017-10-18T18:29:10.332Z,34.73
2017-10-18T18:31:39.742Z,34.83
2017-10-18T18:34:09.146Z,35.10
2017-10-18T18:36:38.518Z,41.00
2017-10-18T18:39:07.907Z,39.30
2017-10-18T18:41:37.513Z,41.90
2017-10-18T18:44:06.900Z,40.10
2017-10-18T18:46:36.276Z,40.17
2017-10-18T18:49:06.451Z,40.17
2017-10-18T18:51:35.885Z,37.00
2017-10-18T18:54:05.289Z,37.60
2017-10-18T18:56:35.358Z,37.30
2017-10-18T18:59:04.742Z,36.27
2017-10-18T19:01:34.146Z,35.43
2017-10-18T19:04:03.541Z,36.37
2017-10-18T19:06:33.706Z,38.63
2017-10-18T19:09:03.364Z,40.13
2017-10-18T19:11:32.758Z,40.03
2017-10-18T19:14:02.155Z,38.30
2017-10-18T19:16:31.955Z,34.93
2017-10-18T19:19:01.152Z,36.40
2017-10-18T19:21:31.321Z,35.20
2017-10-18T19:24:01.064Z,35.10
2017-10-18T19:26:30.280Z,34.40
2017-10-18T19:29:00.590Z,33.23
2017-10-18T19:31:30.090Z,35.40
2017-10-18T19:33:59.281Z,33.50
2017-10-18T19:36:29.473Z,34.53
2017-10-18T19:38:59.210Z,35.27
2017-10-18T19:41:28.580Z,35.60
2017-10-18T19:43:57.978Z,33.03
2017-10-18T19:46:27.738Z,34.53
2017-10-18T19:48:57.130Z,36.80
2017-10-18T19:51:26.496Z,34.80
2017-10-18T19:53:56.928Z,37.07
2017-10-18T19:56:26.324Z,34.70
2017-10-18T19:58:55.547Z,36.23
2017-10-18T20:01:25.204Z,35.87
2017-10-18T20:03:55.353Z,34.37
2017-10-18T20:06:24.758Z,33.83
2017-10-18T20:08:54.539Z,36.33
2017-10-18T20:11:23.977Z,36.37
2017-10-18T20:13:53.402Z,38.77
2017-10-18T20:16:23.568Z,37.20
2017-10-18T20:18:52.959Z,35.83
2017-10-18T20:21:23.374Z,47.20
2017-10-18T20:23:52.754Z,52.17
2017-10-18T20:26:21.949Z,46.30
2017-10-18T20:28:51.842Z,37.90
2017-10-18T20:31:22.000Z,37.83
2017-10-18T20:33:51.393Z,43.07
2017-10-18T20:36:21.873Z,37.20
2017-10-18T20:38:51.279Z,38.97
2017-10-18T20:41:21.510Z,38.73
2017-10-18T20:43:50.710Z,35.33
2017-10-18T20:46:20.111Z,36.93
2017-10-18T20:48:50.793Z,35.90
2017-10-18T20:51:20.302Z,35.63
2017-10-18T20:53:50.368Z,38.23
2017-10-18T20:56:21.330Z,41.20
2017-10-18T20:58:50.930Z,47.10
2017-10-18T21:01:20.959Z,44.13
2017-10-18T21:03:50.382Z,42.00
2017-10-18T21:06:19.769Z,42.17
2017-10-18T21:08:49.309Z,40.70
2017-10-18T21:11:19.016Z,41.83
2017-10-18T21:13:48.394Z,40.20
2017-10-18T21:16:17.799Z,43.33
2017-10-18T21:18:48.477Z,42.63
2017-10-18T21:21:17.873Z,42.27
2017-10-18T21:23:47.264Z,41.63
2017-10-18T21:26:17.206Z,49.20
2017-10-18T21:28:47.349Z,47.93
2017-10-18T21:31:16.909Z,41.90
2017-10-18T21:33:46.622Z,42.97
2017-10-18T21:36:16.025Z,41.73
2017-10-18T21:38:45.206Z,40.40
2017-10-18T21:41:14.713Z,42.57
2017-10-18T21:43:44.672Z,41.70
2017-10-18T21:46:14.066Z,45.53
2017-10-18T21:48:44.132Z,47.57
2017-10-18T21:51:13.516Z,50.33
2017-10-18T21:53:42.722Z,48.47
2017-10-18T21:56:12.484Z,44.90
2017-10-18T21:58:41.877Z,45.87
2017-10-18T22:01:11.264Z,48.83
2017-10-18T22:03:40.762Z,44.53
2017-10-18T22:06:10.903Z,43.90
2017-10-18T22:08:41.414Z,42.63
2017-10-18T22:11:10.805Z,40.47
2017-10-18T22:13:40.192Z,38.17
2017-10-18T22:16:09.949Z,36.63
2017-10-18T22:18:39.330Z,39.87
2017-10-18T22:21:08.706Z,39.37
2017-10-18T22:23:40.237Z,35.40
2017-10-18T22:26:09.618Z,35.20
2017-10-18T22:28:39.773Z,38.00
2017-10-18T22:31:09.503Z,36.87
2017-10-18T22:33:38.889Z,37.33
2017-10-18T22:36:08.260Z,37.57
2017-10-18T22:38:37.962Z,35.13
2017-10-18T22:41:07.352Z,36.27
2017-10-18T22:43:36.740Z,34.50
2017-10-18T22:46:07.319Z,37.03
2017-10-18T22:48:36.708Z,32.63
2017-10-18T22:51:06.865Z,30.57
2017-10-18T22:53:36.598Z,31.20
2017-10-18T22:56:06.002Z,32.43
2017-10-18T22:58:35.448Z,32.23
2017-10-18T23:01:05.095Z,28.70
2017-10-18T23:03:35.238Z,34.53
2017-10-18T23:06:04.462Z,35.07
2017-10-18T23:08:34.158Z,32.87
2017-10-18T23:11:04.313Z,33.70
2017-10-18T23:13:33.701Z,34.20
2017-10-18T23:16:04.418Z,36.17
2017-10-18T23:18:33.804Z,34.40
2017-10-18T23:21:05.189Z,32.57
2017-10-18T23:23:34.623Z,33.13
2017-10-18T23:26:04.014Z,31.90
2017-10-18T23:28:33.649Z,33.73
2017-10-18T23:31:03.039Z,33.93
2017-10-18T23:33:32.408Z,30.70
2017-10-18T23:36:03.210Z,35.27
2017-10-18T23:38:32.627Z,33.67
2017-10-18T23:41:02.037Z,32.03
2017-10-18T23:43:32.050Z,33.07
2017-10-18T23:46:01.438Z,33.37
2017-10-18T23:48:31.605Z,33.23
2017-10-18T23:51:01.335Z,32.03
2017-10-18T23:53:30.730Z,29.53
2017-10-18T23:56:00.114Z,37.50
2017-10-18T23:58:30.638Z,34.03
